TAF and METAR

Decoding for American and Canadian METARs and TAFs is not fully implemented.

Could not understand the following METAR

K0CO 230324Z AUTO 30008G16KT 251V321 SCT012 OVC020 M14/M20 A2966 RMK AO2 PWINO
No TAF available for Empire
Empire in United States of America at 3807m

Latest 5 airports